createdAt,value
2018-06-04T00:00:35.000Z,32.7
2018-06-04T00:02:35.000Z,32.7
2018-06-04T00:03:35.000Z,32.7
2018-06-04T00:05:35.000Z,32.6
2018-06-04T00:07:35.000Z,32.6
2018-06-04T00:08:35.000Z,32.6
2018-06-04T00:10:35.000Z,32.7
2018-06-04T00:11:35.000Z,32.7
2018-06-04T00:12:35.000Z,32.7
2018-06-04T00:14:35.000Z,32.8
2018-06-04T00:16:35.000Z,32.8
2018-06-04T00:18:35.000Z,32.7
2018-06-04T00:19:35.000Z,32.7
2018-06-04T00:21:35.000Z,32.7
2018-06-04T00:22:35.000Z,32.8
2018-06-04T00:24:35.000Z,32.8
2018-06-04T00:25:35.000Z,32.8
2018-06-04T00:26:35.000Z,32.8
2018-06-04T00:28:35.000Z,32.8
2018-06-04T00:30:35.000Z,32.8
2018-06-04T00:31:35.000Z,32.8
2018-06-04T00:32:35.000Z,32.8
2018-06-04T00:33:35.000Z,32.9
2018-06-04T00:35:35.000Z,32.9
2018-06-04T00:37:35.000Z,32.8
2018-06-04T00:39:35.000Z,32.8
2018-06-04T00:41:35.000Z,32.7
2018-06-04T00:42:35.000Z,32.7
2018-06-04T00:44:35.000Z,32.7
2018-06-04T00:46:20.000Z,32.7
2018-06-04T00:47:35.000Z,32.7
2018-06-04T00:48:35.000Z,32.7
2018-06-04T00:50:35.000Z,32.6
2018-06-04T00:51:35.000Z,32.6
2018-06-04T00:53:35.000Z,32.6
2018-06-04T00:55:35.000Z,32.6
2018-06-04T00:57:35.000Z,32.5
2018-06-04T00:58:35.000Z,32.5
2018-06-04T01:00:35.000Z,32.5
2018-06-04T01:01:35.000Z,32.5
2018-06-04T01:03:35.000Z,32.6
2018-06-04T01:05:35.000Z,32.6
2018-06-04T01:06:35.000Z,32.6
2018-06-04T01:07:35.000Z,32.7
2018-06-04T01:09:35.000Z,32.7
2018-06-04T01:10:35.000Z,32.7
2018-06-04T01:12:35.000Z,32.7
2018-06-04T01:14:35.000Z,32.7
2018-06-04T01:16:35.000Z,32.6
2018-06-04T01:17:35.000Z,32.6
2018-06-04T01:19:35.000Z,32.5
2018-06-04T01:21:35.000Z,32.5
2018-06-04T01:22:35.000Z,32.5
2018-06-04T01:23:35.000Z,32.5
2018-06-04T01:24:35.000Z,32.6
2018-06-04T01:25:35.000Z,32.6
2018-06-04T01:27:35.000Z,32.7
2018-06-04T01:28:35.000Z,32.7
2018-06-04T01:30:35.000Z,32.7
2018-06-04T01:31:35.000Z,32.7
2018-06-04T01:33:35.000Z,32.7
2018-06-04T01:34:35.000Z,32.7
2018-06-04T01:36:35.000Z,32.7
2018-06-04T01:37:35.000Z,32.6
2018-06-04T01:38:35.000Z,32.7
2018-06-04T01:40:35.000Z,32.7
2018-06-04T01:41:35.000Z,32.7
2018-06-04T01:42:35.000Z,32.7
2018-06-04T01:44:35.000Z,32.7
2018-06-04T01:46:35.000Z,32.7
2018-06-04T01:48:20.000Z,32.7
2018-06-04T01:49:35.000Z,32.6
2018-06-04T01:51:35.000Z,32.5
2018-06-04T01:53:35.000Z,32.5
2018-06-04T01:54:35.000Z,32.5
2018-06-04T01:56:35.000Z,32.5
2018-06-04T01:57:35.000Z,32.5
2018-06-04T01:59:35.000Z,32.6
2018-06-04T02:00:35.000Z,32.6
2018-06-04T02:01:35.000Z,32.6
2018-06-04T02:03:35.000Z,32.6
2018-06-04T02:04:35.000Z,32.6
2018-06-04T02:06:35.000Z,32.6
2018-06-04T02:07:35.000Z,32.5
2018-06-04T02:08:35.000Z,32.6
2018-06-04T02:10:20.000Z,32.6
2018-06-04T02:11:35.000Z,32.6
2018-06-04T02:13:35.000Z,32.5
2018-06-04T02:14:35.000Z,32.5
2018-06-04T02:16:35.000Z,32.5
2018-06-04T02:17:35.000Z,32.5
2018-06-04T02:18:35.000Z,32.5
2018-06-04T02:20:20.000Z,32.5
2018-06-04T02:21:35.000Z,32.5
2018-06-04T02:22:35.000Z,32.5
2018-06-04T02:24:35.000Z,32.5
2018-06-04T02:25:35.000Z,32.5
2018-06-04T02:26:35.000Z,32.6
2018-06-04T02:28:35.000Z,32.5
2018-06-04T02:30:35.000Z,32.4
2018-06-04T02:32:35.000Z,32.4
2018-06-04T02:34:35.000Z,32.4
2018-06-04T02:35:35.000Z,32.4
2018-06-04T02:37:35.000Z,32.4
2018-06-04T02:39:35.000Z,32.3
2018-06-04T02:41:35.000Z,32.3
2018-06-04T02:43:20.000Z,32.3
2018-06-04T02:44:35.000Z,32.3
2018-06-04T02:46:35.000Z,32.3
2018-06-04T02:48:35.000Z,32.3
2018-06-04T02:49:35.000Z,32.3
2018-06-04T02:50:35.000Z,32.4
2018-06-04T02:51:35.000Z,32.4
2018-06-04T02:53:35.000Z,32.5
2018-06-04T02:54:35.000Z,32.5
2018-06-04T02:56:20.000Z,32.5
2018-06-04T02:57:35.000Z,32.5
2018-06-04T02:58:35.000Z,32.5
2018-06-04T03:00:20.000Z,32.5
2018-06-04T03:01:35.000Z,32.5
2018-06-04T03:03:35.000Z,32.5
2018-06-04T03:05:35.000Z,32.4
2018-06-04T03:07:35.000Z,32.4
2018-06-04T03:08:35.000Z,32.3
2018-06-04T03:10:20.000Z,32.4
2018-06-04T03:11:35.000Z,32.3
2018-06-04T03:12:35.000Z,32.4
2018-06-04T03:13:35.000Z,32.4
2018-06-04T03:14:35.000Z,32.4
2018-06-04T03:16:35.000Z,32.4
2018-06-04T03:18:35.000Z,32.4
2018-06-04T03:19:35.000Z,32.4
2018-06-04T03:20:35.000Z,32.4
2018-06-04T03:22:35.000Z,32.4
2018-06-04T03:24:36.000Z,32.4
2018-06-04T03:26:35.000Z,32.5
2018-06-04T03:27:35.000Z,32.5
2018-06-04T03:29:35.000Z,32.5
2018-06-04T03:31:35.000Z,32.4
2018-06-04T03:33:35.000Z,32.4
2018-06-04T03:35:35.000Z,32.4
2018-06-04T03:36:35.000Z,32.4
2018-06-04T03:38:20.000Z,32.4
2018-06-04T03:39:35.000Z,32.4
2018-06-04T03:41:35.000Z,32.4
2018-06-04T03:42:35.000Z,32.4
2018-06-04T03:44:20.000Z,32.5
2018-06-04T03:45:35.000Z,32.4
2018-06-04T03:46:35.000Z,32.4
2018-06-04T03:48:35.000Z,32.4
2018-06-04T03:50:20.000Z,32.4
2018-06-04T03:51:35.000Z,32.4
2018-06-04T03:53:35.000Z,32.4
2018-06-04T03:54:35.000Z,32.4
2018-06-04T03:56:35.000Z,32.5
2018-06-04T03:58:35.000Z,32.4
2018-06-04T03:59:35.000Z,32.4
2018-06-04T04:01:35.000Z,32.5
2018-06-04T04:02:35.000Z,32.5
2018-06-04T04:03:35.000Z,32.5
2018-06-04T04:05:35.000Z,32.6
2018-06-04T04:06:35.000Z,32.6
2018-06-04T04:07:35.000Z,32.6
2018-06-04T04:09:35.000Z,32.7
2018-06-04T04:11:35.000Z,32.6
2018-06-04T04:13:35.000Z,32.5
2018-06-04T04:14:35.000Z,32.4
2018-06-04T04:16:35.000Z,32.4
2018-06-04T04:17:35.000Z,32.5
2018-06-04T04:19:35.000Z,32.5
2018-06-04T04:20:35.000Z,32.5
2018-06-04T04:21:35.000Z,32.6
2018-06-04T04:23:35.000Z,32.6
2018-06-04T04:24:35.000Z,32.6
2018-06-04T04:26:35.000Z,32.4
2018-06-04T04:28:35.000Z,31.9
2018-06-04T04:30:35.000Z,30.4
2018-06-04T04:32:35.000Z,29.1
2018-06-04T04:34:35.000Z,27.9
2018-06-04T04:35:35.000Z,27.4
2018-06-04T04:36:35.000Z,26.9
2018-06-04T04:38:35.000Z,26
2018-06-04T04:40:35.000Z,25.2
2018-06-04T04:42:35.000Z,24.7
2018-06-04T04:44:35.000Z,24.7
2018-06-04T04:46:35.000Z,24.5
2018-06-04T04:47:35.000Z,24.6
2018-06-04T04:49:35.000Z,24.8
2018-06-04T04:51:35.000Z,24.9
2018-06-04T04:52:35.000Z,25
2018-06-04T04:54:35.000Z,24.9
2018-06-04T04:55:35.000Z,24.7
2018-06-04T04:57:35.000Z,24.4
2018-06-04T04:58:35.000Z,24.2
2018-06-04T05:00:20.000Z,24.1
2018-06-04T05:01:35.000Z,23.9
2018-06-04T05:03:35.000Z,23.9
2018-06-04T05:04:35.000Z,23.9
2018-06-04T05:06:20.000Z,23.9
2018-06-04T05:07:35.000Z,23.8
2018-06-04T05:09:35.000Z,23.6
2018-06-04T05:11:35.000Z,23.5
2018-06-04T05:13:20.000Z,23.6
2018-06-04T05:14:35.000Z,23.5
2018-06-04T05:16:35.000Z,23.6
2018-06-04T05:18:20.000Z,23.7
2018-06-04T05:19:35.000Z,24
2018-06-04T05:21:35.000Z,24.6
2018-06-04T05:22:35.000Z,24.9
2018-06-04T05:24:35.000Z,25.1
2018-06-04T05:26:20.000Z,25.3
2018-06-04T05:27:35.000Z,25.4
2018-06-04T05:28:35.000Z,25.4
2018-06-04T05:29:35.000Z,25.5
2018-06-04T05:31:35.000Z,25.2
2018-06-04T05:32:35.000Z,25.1
2018-06-04T05:34:35.000Z,25
2018-06-04T05:35:35.000Z,24.9
2018-06-04T05:36:35.000Z,24.8
2018-06-04T05:37:35.000Z,24.8
2018-06-04T05:39:35.000Z,24.6
2018-06-04T05:41:35.000Z,24.4
2018-06-04T05:43:35.000Z,24.3
2018-06-04T05:44:35.000Z,24.3
2018-06-04T05:45:35.000Z,24.3
2018-06-04T05:47:35.000Z,24.3
2018-06-04T05:48:35.000Z,24.3
2018-06-04T05:50:35.000Z,24.4
2018-06-04T05:51:35.000Z,24.5
2018-06-04T05:52:35.000Z,24.6
2018-06-04T05:54:35.000Z,24.8
2018-06-04T05:55:35.000Z,24.8
2018-06-04T05:57:35.000Z,25.2
2018-06-04T05:59:35.000Z,25.4
2018-06-04T06:00:35.000Z,25.5
2018-06-04T06:02:35.000Z,25.6
2018-06-04T06:03:35.000Z,25.7
2018-06-04T06:04:35.000Z,25.7
2018-06-04T06:05:35.000Z,25.7
2018-06-04T06:07:35.000Z,25.9
2018-06-04T06:08:35.000Z,25.9
2018-06-04T06:09:35.000Z,26.1
2018-06-04T06:11:35.000Z,26.3
2018-06-04T06:12:35.000Z,26.4
2018-06-04T06:14:35.000Z,26.5
2018-06-04T06:16:35.000Z,26.5
2018-06-04T06:18:35.000Z,26.5
2018-06-04T06:20:35.000Z,26.7
2018-06-04T06:21:35.000Z,26.7
2018-06-04T06:23:35.000Z,26.6
2018-06-04T06:24:35.000Z,26.5
2018-06-04T06:26:20.000Z,26.4
2018-06-04T06:27:35.000Z,26.3
2018-06-04T06:29:35.000Z,26.3
2018-06-04T06:30:35.000Z,26.3
2018-06-04T06:32:35.000Z,26.2
2018-06-04T06:33:35.000Z,26.2
2018-06-04T06:35:35.000Z,26.3
2018-06-04T06:37:35.000Z,26.5
2018-06-04T06:38:35.000Z,26.8
2018-06-04T06:40:35.000Z,27.1
2018-06-04T06:42:35.000Z,27.1
2018-06-04T06:44:35.000Z,27.2
2018-06-04T06:46:35.000Z,27.4
2018-06-04T06:47:35.000Z,27.5
2018-06-04T06:49:35.000Z,27.3
2018-06-04T06:51:35.000Z,27
2018-06-04T06:53:35.000Z,27.2
2018-06-04T06:55:35.000Z,27.6
2018-06-04T06:56:35.000Z,27.7
2018-06-04T06:58:20.000Z,27.9
2018-06-04T06:59:35.000Z,27.9
2018-06-04T07:00:35.000Z,28.1
2018-06-04T07:02:35.000Z,28.3
2018-06-04T07:04:35.000Z,28.5
2018-06-04T07:05:35.000Z,28.6
2018-06-04T07:07:35.000Z,28.9
2018-06-04T07:08:35.000Z,29
2018-06-04T07:10:35.000Z,29.2
2018-06-04T07:12:35.000Z,29.2
2018-06-04T07:14:35.000Z,28.8
2018-06-04T07:15:35.000Z,28.6
2018-06-04T07:17:35.000Z,28.3
2018-06-04T07:19:35.000Z,28.5
2018-06-04T07:20:35.000Z,28.5
2018-06-04T07:21:35.000Z,28.5
2018-06-04T07:23:35.000Z,28.8
2018-06-04T07:24:35.000Z,28.9
2018-06-04T07:25:35.000Z,29
2018-06-04T07:27:35.000Z,29.3
2018-06-04T07:28:35.000Z,29.4
2018-06-04T07:30:35.000Z,29.7
2018-06-04T07:31:35.000Z,29.5
2018-06-04T07:32:35.000Z,29.4
2018-06-04T07:34:35.000Z,29.2
2018-06-04T07:36:35.000Z,29.2
2018-06-04T07:38:35.000Z,29.4
2018-06-04T07:40:35.000Z,29.6
2018-06-04T07:41:35.000Z,29.7
2018-06-04T07:43:35.000Z,29.9
2018-06-04T07:45:35.000Z,30.1
2018-06-04T07:46:35.000Z,30.1
2018-06-04T07:48:35.000Z,30.3
2018-06-04T07:50:35.000Z,30.3
2018-06-04T07:51:35.000Z,29.9
2018-06-04T07:52:35.000Z,29.5
2018-06-04T07:53:35.000Z,29.6
2018-06-04T07:55:35.000Z,29.9
2018-06-04T07:57:35.000Z,30.3
2018-06-04T07:58:35.000Z,30.4
2018-06-04T07:59:35.000Z,30.6
2018-06-04T08:01:35.000Z,30.8
2018-06-04T08:03:35.000Z,30.9
2018-06-04T08:04:35.000Z,31
2018-06-04T08:06:35.000Z,31.1
2018-06-04T08:07:35.000Z,31.2
2018-06-04T08:09:35.000Z,31.3
2018-06-04T08:10:35.000Z,31.3
2018-06-04T08:12:35.000Z,31.2
2018-06-04T08:14:35.000Z,31.1
2018-06-04T08:16:19.000Z,31
2018-06-04T08:17:35.000Z,31
2018-06-04T08:18:35.000Z,31
2018-06-04T08:20:35.000Z,31
2018-06-04T08:21:35.000Z,31
2018-06-04T08:22:35.000Z,31
2018-06-04T08:24:35.000Z,30.8
2018-06-04T08:25:35.000Z,30.9
2018-06-04T08:27:35.000Z,30.9
2018-06-04T08:28:35.000Z,31
2018-06-04T08:30:35.000Z,31
2018-06-04T08:31:35.000Z,31
2018-06-04T08:33:35.000Z,31.3
2018-06-04T08:35:35.000Z,31.4
2018-06-04T08:37:35.000Z,31.6
2018-06-04T08:38:35.000Z,31.6
2018-06-04T08:40:35.000Z,31.5
2018-06-04T08:42:35.000Z,31.5
2018-06-04T08:43:35.000Z,31.5
2018-06-04T08:44:35.000Z,31.5
2018-06-04T08:45:35.000Z,31.5
2018-06-04T08:47:35.000Z,31.5
2018-06-04T08:48:35.000Z,31.4
2018-06-04T08:49:35.000Z,31.1
2018-06-04T08:51:35.000Z,30.6
2018-06-04T08:52:35.000Z,30.6
2018-06-04T08:54:35.000Z,30.7
2018-06-04T08:55:35.000Z,30.8
2018-06-04T08:57:35.000Z,30.9
2018-06-04T08:58:35.000Z,31
2018-06-04T08:59:35.000Z,31
2018-06-04T09:01:35.000Z,31.1
2018-06-04T09:03:35.000Z,31.1
2018-06-04T09:04:35.000Z,31.1
2018-06-04T09:06:35.000Z,31.1
2018-06-04T09:08:35.000Z,31.1
2018-06-04T09:10:35.000Z,31.2
2018-06-04T09:12:35.000Z,31.1
2018-06-04T09:14:35.000Z,31.1
2018-06-04T09:15:35.000Z,31.2
2018-06-04T09:17:35.000Z,31.3
2018-06-04T09:19:35.000Z,31.2
2018-06-04T09:21:35.000Z,31.2
2018-06-04T09:23:35.000Z,31.2
2018-06-04T09:24:35.000Z,31.2
2018-06-04T09:26:20.000Z,31.4
2018-06-04T09:27:35.000Z,31.3
2018-06-04T09:28:35.000Z,31.4
2018-06-04T09:29:35.000Z,31.4
2018-06-04T09:31:35.000Z,31.5
2018-06-04T09:33:35.000Z,31.4
2018-06-04T09:34:35.000Z,31.4
2018-06-04T09:36:35.000Z,31.3
2018-06-04T09:38:35.000Z,31.3
2018-06-04T09:40:35.000Z,31.2
2018-06-04T09:41:35.000Z,31.1
2018-06-04T09:43:20.000Z,31.2
2018-06-04T09:44:35.000Z,31.1
2018-06-04T09:46:35.000Z,31.1
2018-06-04T09:47:35.000Z,31
2018-06-04T09:49:35.000Z,31
2018-06-04T09:50:35.000Z,31.1
2018-06-04T09:51:35.000Z,31.1
2018-06-04T09:52:35.000Z,31.2
2018-06-04T09:53:35.000Z,31.2
2018-06-04T09:55:35.000Z,31.3
2018-06-04T09:57:35.000Z,31.3
2018-06-04T09:59:35.000Z,31.2
2018-06-04T10:00:35.000Z,31.2
2018-06-04T10:01:35.000Z,31.2
2018-06-04T10:02:35.000Z,31.3
2018-06-04T10:04:35.000Z,31.3
2018-06-04T10:06:35.000Z,31.2
2018-06-04T10:08:35.000Z,31.1
2018-06-04T10:09:35.000Z,31.1
2018-06-04T10:10:35.000Z,31.1
2018-06-04T10:12:35.000Z,31.1
2018-06-04T10:14:35.000Z,31.1
2018-06-04T10:16:35.000Z,31.1
2018-06-04T10:18:35.000Z,31.1
2018-06-04T10:20:35.000Z,31.1
2018-06-04T10:22:35.000Z,31.1
2018-06-04T10:23:35.000Z,31.1
2018-06-04T10:25:35.000Z,31.1
2018-06-04T10:27:20.000Z,31.1
2018-06-04T10:28:35.000Z,31.1
2018-06-04T10:30:35.000Z,31.1
2018-06-04T10:32:20.000Z,31.1
2018-06-04T10:33:35.000Z,31
2018-06-04T10:35:35.000Z,31
2018-06-04T10:36:35.000Z,31.1
2018-06-04T10:38:35.000Z,31.1
2018-06-04T10:39:35.000Z,31.1
2018-06-04T10:40:35.000Z,31.1
2018-06-04T10:42:35.000Z,31.1
2018-06-04T10:44:35.000Z,31.1
2018-06-04T10:46:35.000Z,31.1
2018-06-04T10:48:35.000Z,31.1
2018-06-04T10:50:35.000Z,31.1
2018-06-04T10:52:35.000Z,31
2018-06-04T10:54:35.000Z,31
2018-06-04T10:56:35.000Z,30.9
2018-06-04T10:58:35.000Z,31
2018-06-04T11:00:35.000Z,31
2018-06-04T11:02:35.000Z,31.1
2018-06-04T11:04:35.000Z,31.1
2018-06-04T11:05:35.000Z,31.1
2018-06-04T11:07:35.000Z,31.1
2018-06-04T11:09:35.000Z,31.1
2018-06-04T11:11:35.000Z,31.1
2018-06-04T11:13:35.000Z,31.1
2018-06-04T11:14:35.000Z,31.1
2018-06-04T11:15:35.000Z,31.2
2018-06-04T11:17:35.000Z,31.3
2018-06-04T11:19:35.000Z,31.3
2018-06-04T11:21:35.000Z,31.2
2018-06-04T11:25:22.000Z,30.8
2018-06-04T11:26:22.000Z,30.9
2018-06-04T11:28:06.000Z,31
2018-06-04T11:29:22.000Z,31.1
2018-06-04T11:31:22.000Z,31.2
2018-06-04T11:33:22.000Z,31.3
2018-06-04T11:35:22.000Z,31.3
2018-06-04T11:37:22.000Z,31.3
2018-06-04T11:38:22.000Z,31.4
2018-06-04T11:40:22.000Z,31.4
2018-06-04T11:42:22.000Z,31.5
2018-06-04T11:44:22.000Z,31.5
2018-06-04T11:45:22.000Z,31.5
2018-06-04T11:47:22.000Z,31.5
2018-06-04T11:48:22.000Z,31.4
2018-06-04T11:50:22.000Z,31.5
2018-06-04T11:51:22.000Z,31.5
2018-06-04T11:52:22.000Z,31.6
2018-06-04T11:54:22.000Z,31.7
2018-06-04T11:55:22.000Z,31.7
2018-06-04T11:57:22.000Z,31.7
2018-06-04T11:59:22.000Z,31.6
2018-06-04T12:01:22.000Z,31.5
2018-06-04T12:03:22.000Z,31.5
2018-06-04T12:05:06.000Z,31.5
2018-06-04T12:06:22.000Z,31.5
2018-06-04T12:07:22.000Z,31.5
2018-06-04T12:09:22.000Z,31.6
2018-06-04T12:10:22.000Z,31.7
2018-06-04T12:11:22.000Z,31.8
2018-06-04T12:13:22.000Z,31.9
2018-06-04T12:14:22.000Z,31.9
2018-06-04T12:15:22.000Z,31.9
2018-06-04T12:17:22.000Z,32
2018-06-04T12:18:22.000Z,32
2018-06-04T12:20:21.000Z,32
2018-06-04T12:21:21.000Z,32
2018-06-04T12:23:21.000Z,31.9
2018-06-04T12:24:21.000Z,31.9
2018-06-04T12:26:21.000Z,31.9
2018-06-04T12:28:21.000Z,31.8
2018-06-04T12:30:06.000Z,31.8
2018-06-04T12:31:21.000Z,31.8
2018-06-04T12:33:21.000Z,31.8
2018-06-04T12:34:21.000Z,31.8
2018-06-04T12:35:21.000Z,31.8
2018-06-04T12:37:21.000Z,31.9
2018-06-04T12:38:21.000Z,31.9
2018-06-04T12:40:21.000Z,31.9
2018-06-04T12:42:21.000Z,32
2018-06-04T12:44:21.000Z,31.9
2018-06-04T12:46:21.000Z,31.9
2018-06-04T12:48:21.000Z,31.8
2018-06-04T12:49:21.000Z,31.8
2018-06-04T12:51:21.000Z,31.8
2018-06-04T12:52:21.000Z,31.8
2018-06-04T12:54:21.000Z,31.9
2018-06-04T12:56:21.000Z,31.8
2018-06-04T12:58:21.000Z,31.8
2018-06-04T13:00:21.000Z,31.7
2018-06-04T13:04:22.000Z,31.3
2018-06-04T13:06:07.000Z,31.3
2018-06-04T13:08:07.000Z,31.5
2018-06-04T13:09:52.000Z,31.6
2018-06-04T13:11:07.000Z,31.7
2018-06-04T13:13:07.000Z,31.8
2018-06-04T13:15:07.000Z,32
2018-06-04T13:16:52.000Z,32
2018-06-04T13:18:07.000Z,32.1
2018-06-04T13:19:07.000Z,32.2
2018-06-04T13:21:07.000Z,32.3
2018-06-04T13:23:07.000Z,32.3
2018-06-04T13:24:07.000Z,32.4
2018-06-04T13:26:07.000Z,32.5
2018-06-04T13:27:07.000Z,32.5
2018-06-04T13:29:07.000Z,32.6
2018-06-04T13:30:07.000Z,32.6
2018-06-04T13:32:07.000Z,32.7
2018-06-04T13:34:07.000Z,32.6
2018-06-04T13:35:07.000Z,32.6
2018-06-04T13:37:07.000Z,32.5
2018-06-04T13:39:07.000Z,32.4
2018-06-04T13:40:07.000Z,32.4
2018-06-04T13:42:07.000Z,32.4
2018-06-04T13:44:07.000Z,32.4
2018-06-04T13:45:07.000Z,32.4
2018-06-04T13:46:07.000Z,32.4
2018-06-04T13:48:07.000Z,32.5
2018-06-04T13:50:07.000Z,32.5
2018-06-04T13:51:07.000Z,32.5
2018-06-04T13:52:07.000Z,32.5
2018-06-04T13:54:07.000Z,32.5
2018-06-04T13:55:07.000Z,32.5
2018-06-04T13:56:52.000Z,32.5
2018-06-04T13:58:07.000Z,32.4
2018-06-04T13:59:07.000Z,32.4
2018-06-04T14:01:07.000Z,32.4
2018-06-04T14:02:07.000Z,32.4
2018-06-04T14:04:07.000Z,32.4
2018-06-04T14:06:07.000Z,32.4
2018-06-04T14:07:07.000Z,32.4
2018-06-04T14:09:07.000Z,32.4
2018-06-04T14:10:07.000Z,32.4
2018-06-04T14:11:07.000Z,32.4
2018-06-04T14:13:07.000Z,32.4
2018-06-04T14:14:07.000Z,32.4
2018-06-04T14:15:07.000Z,32.4
2018-06-04T14:16:07.000Z,32.4
2018-06-04T14:17:07.000Z,32.5
2018-06-04T14:19:07.000Z,32.5
2018-06-04T14:21:07.000Z,32.3
2018-06-04T14:23:07.000Z,32.2
2018-06-04T14:25:07.000Z,32.2
2018-06-04T14:26:07.000Z,32.2
2018-06-04T14:28:07.000Z,32.3
2018-06-04T14:29:07.000Z,32.3
2018-06-04T14:30:07.000Z,32.4
2018-06-04T14:31:07.000Z,32.4
2018-06-04T14:32:07.000Z,32.5
2018-06-04T14:34:07.000Z,32.4
2018-06-04T14:35:07.000Z,32.4
2018-06-04T14:37:07.000Z,32.4
2018-06-04T14:39:07.000Z,32.3
2018-06-04T14:40:07.000Z,32.4
2018-06-04T14:42:07.000Z,32.4
2018-06-04T14:43:07.000Z,32.4
2018-06-04T14:44:52.000Z,32.4
2018-06-04T14:46:07.000Z,32.3
2018-06-04T14:48:07.000Z,32.3
2018-06-04T14:50:07.000Z,32.2
2018-06-04T14:52:07.000Z,32.2
2018-06-04T14:54:07.000Z,32.2
2018-06-04T14:55:07.000Z,32.3
2018-06-04T14:57:07.000Z,32.3
2018-06-04T14:58:07.000Z,32.4
2018-06-04T14:59:07.000Z,32.5
2018-06-04T15:01:07.000Z,32.5
2018-06-04T15:02:07.000Z,32.6
2018-06-04T15:04:07.000Z,32.6
2018-06-04T15:06:07.000Z,32.6
2018-06-04T15:08:07.000Z,32.6
2018-06-04T15:09:07.000Z,32.6
2018-06-04T15:10:52.000Z,32.6
2018-06-04T15:12:07.000Z,32.6
2018-06-04T15:13:07.000Z,32.6
2018-06-04T15:15:07.000Z,32.6
2018-06-04T15:16:07.000Z,32.6
2018-06-04T15:17:07.000Z,32.6
2018-06-04T15:19:07.000Z,32.5
2018-06-04T15:20:07.000Z,32.5
2018-06-04T15:22:07.000Z,32.6
2018-06-04T15:23:07.000Z,32.6
2018-06-04T15:25:07.000Z,32.7
2018-06-04T15:26:07.000Z,32.7
2018-06-04T15:27:07.000Z,32.7
2018-06-04T15:29:07.000Z,32.7
2018-06-04T15:31:07.000Z,32.7
2018-06-04T15:33:07.000Z,32.6
2018-06-04T15:34:07.000Z,32.6
2018-06-04T15:36:07.000Z,32.6
2018-06-04T15:38:07.000Z,32.6
2018-06-04T15:40:07.000Z,32.6
2018-06-04T15:41:07.000Z,32.5
2018-06-04T15:43:07.000Z,32.6
2018-06-04T15:44:07.000Z,32.6
2018-06-04T15:45:07.000Z,32.7
2018-06-04T15:47:07.000Z,32.7
2018-06-04T15:48:07.000Z,32.7
2018-06-04T15:49:07.000Z,32.8
2018-06-04T15:51:07.000Z,32.8
2018-06-04T15:52:07.000Z,32.8
2018-06-04T15:54:07.000Z,32.8
2018-06-04T15:55:07.000Z,32.8
2018-06-04T15:57:07.000Z,32.8
2018-06-04T15:59:07.000Z,32.7
2018-06-04T16:01:07.000Z,32.7
2018-06-04T16:03:07.000Z,32.6
2018-06-04T16:05:07.000Z,32.6
2018-06-04T16:06:07.000Z,32.6
2018-06-04T16:08:07.000Z,32.6
2018-06-04T16:10:07.000Z,32.6
2018-06-04T16:12:07.000Z,32.5
2018-06-04T16:13:07.000Z,32.5
2018-06-04T16:15:07.000Z,32.6
2018-06-04T16:17:07.000Z,32.6
2018-06-04T16:18:07.000Z,32.6
2018-06-04T16:20:07.000Z,32.6
2018-06-04T16:21:07.000Z,32.6
2018-06-04T16:23:07.000Z,32.6
2018-06-04T16:24:07.000Z,32.6
2018-06-04T16:26:07.000Z,32.7
2018-06-04T16:27:52.000Z,32.7
2018-06-04T16:29:07.000Z,32.6
2018-06-04T16:30:07.000Z,32.6
2018-06-04T16:32:07.000Z,32.7
2018-06-04T16:34:07.000Z,32.7
2018-06-04T16:36:07.000Z,32.6
2018-06-04T16:38:07.000Z,32.5
2018-06-04T16:39:07.000Z,32.5
2018-06-04T16:41:07.000Z,32.5
2018-06-04T16:42:07.000Z,32.6
2018-06-04T16:44:07.000Z,32.6
2018-06-04T16:46:07.000Z,32.5
2018-06-04T16:48:07.000Z,32.5
2018-06-04T16:50:07.000Z,32.3
2018-06-04T16:51:07.000Z,32.3
2018-06-04T16:52:07.000Z,32.4
2018-06-04T16:54:07.000Z,32.5
2018-06-04T16:55:07.000Z,32.5
2018-06-04T16:57:07.000Z,32.5
2018-06-04T16:58:52.000Z,32.5
2018-06-04T17:00:07.000Z,32.5
2018-06-04T17:01:07.000Z,32.5
2018-06-04T17:02:52.000Z,32.6
2018-06-04T17:04:07.000Z,32.6
2018-06-04T17:06:07.000Z,32.7
2018-06-04T17:07:07.000Z,32.7
2018-06-04T17:08:07.000Z,32.8
2018-06-04T17:10:07.000Z,32.9
2018-06-04T17:11:07.000Z,33
2018-06-04T17:13:07.000Z,33
2018-06-04T17:15:07.000Z,33
2018-06-04T17:17:07.000Z,33
2018-06-04T17:19:07.000Z,33
2018-06-04T17:20:07.000Z,33
2018-06-04T17:21:07.000Z,33
2018-06-04T17:23:25.000Z,33
2018-06-04T17:25:25.000Z,33
2018-06-04T17:27:09.000Z,33
2018-06-04T17:28:25.000Z,33
2018-06-04T17:29:25.000Z,33
2018-06-04T17:30:25.000Z,33
2018-06-04T17:31:25.000Z,33
2018-06-04T17:32:25.000Z,33.1
2018-06-04T17:34:25.000Z,33.2
2018-06-04T17:36:25.000Z,33.1
2018-06-04T17:38:25.000Z,33.1
2018-06-04T17:40:25.000Z,33
2018-06-04T17:41:25.000Z,33
2018-06-04T17:42:25.000Z,33.1
2018-06-04T17:43:25.000Z,33.1
2018-06-04T17:44:25.000Z,33.1
2018-06-04T17:45:25.000Z,33.2
2018-06-04T17:47:25.000Z,33.2
2018-06-04T17:48:25.000Z,33.2
2018-06-04T17:50:25.000Z,33.1
2018-06-04T17:52:25.000Z,33
2018-06-04T17:54:25.000Z,32.9
2018-06-04T17:55:25.000Z,32.9
2018-06-04T17:56:25.000Z,32.9
2018-06-04T17:58:25.000Z,33
2018-06-04T18:00:25.000Z,32.9
2018-06-04T18:01:25.000Z,32.9
2018-06-04T18:02:25.000Z,33
2018-06-04T18:04:25.000Z,33
2018-06-04T18:06:25.000Z,33
2018-06-04T18:07:25.000Z,33
2018-06-04T18:09:25.000Z,33
2018-06-04T18:10:25.000Z,33
2018-06-04T18:11:25.000Z,33
2018-06-04T18:12:25.000Z,33
2018-06-04T18:14:25.000Z,33.1
2018-06-04T18:16:25.000Z,33.1
2018-06-04T18:18:25.000Z,33
2018-06-04T18:20:25.000Z,33
2018-06-04T18:21:25.000Z,32.9
2018-06-04T18:23:25.000Z,33
2018-06-04T18:24:25.000Z,33
2018-06-04T18:25:25.000Z,33
2018-06-04T18:27:24.000Z,33
2018-06-04T18:29:24.000Z,33
2018-06-04T18:31:24.000Z,32.9
2018-06-04T18:33:24.000Z,32.8
2018-06-04T18:34:24.000Z,32.8
2018-06-04T18:36:24.000Z,32.8
2018-06-04T18:37:24.000Z,32.8
2018-06-04T18:39:24.000Z,32.8
2018-06-04T18:40:24.000Z,32.8
2018-06-04T18:42:24.000Z,32.8
2018-06-04T18:44:24.000Z,32.8
2018-06-04T18:45:24.000Z,32.8
2018-06-04T18:47:09.000Z,32.8
2018-06-04T18:48:24.000Z,32.7
2018-06-04T18:50:24.000Z,32.7
2018-06-04T18:52:24.000Z,32.7
2018-06-04T18:53:24.000Z,32.7
2018-06-04T18:54:24.000Z,32.7
2018-06-04T18:55:24.000Z,32.7
2018-06-04T18:57:24.000Z,32.7
2018-06-04T18:59:24.000Z,32.7
2018-06-04T19:00:24.000Z,32.8
2018-06-04T19:01:24.000Z,32.8
2018-06-04T19:02:24.000Z,32.9
2018-06-04T19:04:24.000Z,32.9
2018-06-04T19:05:24.000Z,33
2018-06-04T19:07:09.000Z,33
2018-06-04T19:08:24.000Z,32.9
2018-06-04T19:10:24.000Z,32.8
2018-06-04T19:12:24.000Z,32.7
2018-06-04T19:13:24.000Z,32.7
2018-06-04T19:15:24.000Z,32.7
2018-06-04T19:16:24.000Z,32.7
2018-06-04T19:17:24.000Z,32.7
2018-06-04T19:18:24.000Z,32.7
2018-06-04T19:19:24.000Z,32.8
2018-06-04T19:20:24.000Z,32.8
2018-06-04T19:22:24.000Z,32.8
2018-06-04T19:23:24.000Z,32.8
2018-06-04T19:25:24.000Z,32.8
2018-06-04T19:27:09.000Z,32.8
2018-06-04T19:28:24.000Z,32.7
2018-06-04T19:30:25.000Z,32.7
2018-06-04T19:31:25.000Z,32.7
2018-06-04T19:33:25.000Z,32.7
2018-06-04T19:35:10.000Z,32.6
2018-06-04T19:36:25.000Z,32.5
2018-06-04T19:37:25.000Z,32.6
2018-06-04T19:38:25.000Z,32.6
2018-06-04T19:39:25.000Z,32.7
2018-06-04T19:40:25.000Z,32.7
2018-06-04T19:42:25.000Z,32.7
2018-06-04T19:43:25.000Z,32.7
2018-06-04T19:45:25.000Z,32.7
2018-06-04T19:46:25.000Z,32.7
2018-06-04T19:48:25.000Z,32.7
2018-06-04T19:50:25.000Z,32.7
2018-06-04T19:52:25.000Z,32.6
2018-06-04T19:53:25.000Z,32.5
2018-06-04T19:55:25.000Z,32.5
2018-06-04T19:56:25.000Z,32.6
2018-06-04T19:58:25.000Z,32.6
2018-06-04T20:00:25.000Z,32.5
2018-06-04T20:01:25.000Z,32.5
2018-06-04T20:03:25.000Z,32.5
2018-06-04T20:04:25.000Z,32.6
2018-06-04T20:06:25.000Z,32.6
2018-06-04T20:08:25.000Z,32.5
2018-06-04T20:10:25.000Z,32.4
2018-06-04T20:11:25.000Z,32.5
2018-06-04T20:13:25.000Z,32.5
2018-06-04T20:14:25.000Z,32.5
2018-06-04T20:16:25.000Z,32.5
2018-06-04T20:18:10.000Z,32.5
2018-06-04T20:19:25.000Z,32.5
2018-06-04T20:21:25.000Z,32.4
2018-06-04T20:23:25.000Z,32.4
2018-06-04T20:25:25.000Z,32.3
2018-06-04T20:26:25.000Z,32.3
2018-06-04T20:27:25.000Z,32.4
2018-06-04T20:28:25.000Z,32.4
2018-06-04T20:30:10.000Z,32.5
2018-06-04T20:31:25.000Z,32.5
2018-06-04T20:33:25.000Z,32.5
2018-06-04T20:34:24.000Z,32.5
2018-06-04T20:36:24.000Z,32.5
2018-06-04T20:37:24.000Z,32.5
2018-06-04T20:39:24.000Z,32.5
2018-06-04T20:40:24.000Z,32.5
2018-06-04T20:42:24.000Z,32.5
2018-06-04T20:43:24.000Z,32.5
2018-06-04T20:44:24.000Z,32.5
2018-06-04T20:46:24.000Z,32.5
2018-06-04T20:47:24.000Z,32.6
2018-06-04T20:49:24.000Z,32.6
2018-06-04T20:50:24.000Z,32.6
2018-06-04T20:51:24.000Z,32.6
2018-06-04T20:53:24.000Z,32.6
2018-06-04T20:55:24.000Z,32.5